Time;durP1;ratioP1;P1;durP2;ratioP2;P2;SDS_P1;SDS_P2;PMS_P1;PMS_P2;Temp;Humidity;BMP_temperature;BMP_pressure;BME280_temperature;BME280_humidity;BME280_pressure;Samples;Min_cycle;Max_cycle;Signal;HPM_P1;HPM_P2
2022/04/10 00:00:22;;;;;;;6.68;2.50;;;;;;;;;;5002376;28;21892;-83
2022/04/10 00:02:48;;;;;;;4.75;2.40;;;;;;;;;;5002129;28;20033;-79
2022/04/10 00:05:13;;;;;;;6.53;2.90;;;;;;;;;;5002076;28;20041;-79
2022/04/10 00:07:39;;;;;;;5.40;2.67;;;;;;;;;;5004178;28;20441;-78
2022/04/10 00:10:05;;;;;;;6.95;2.88;;;;;;;;;;5014274;28;20033;-86
2022/04/10 00:12:35;;;;;;;4.70;2.42;;;;;;;;;;5004342;28;20653;-86
2022/04/10 00:15:01;;;;;;;5.47;2.60;;;;;;;;;;5011126;28;20085;-83
2022/04/10 00:17:27;;;;;;;4.60;2.17;;;;;;;;;;5004008;28;20033;-79
2022/04/10 00:19:52;;;;;;;4.35;2.50;;;;;;;;;;5005537;28;20189;-82
2022/04/10 00:22:18;;;;;;;5.30;2.53;;;;;;;;;;5005677;28;20573;-83
2022/04/10 00:24:43;;;;;;;5.60;2.60;;;;;;;;;;5005818;28;20030;-78
2022/04/10 00:27:13;;;;;;;4.50;2.78;;;;;;;;;;5005469;28;20033;-85
2022/04/10 00:29:42;;;;;;;3.80;2.03;;;;;;;;;;5005476;28;20050;-85
2022/04/10 00:32:08;;;;;;;4.85;2.60;;;;;;;;;;5016164;28;20033;-83
2022/04/10 00:34:33;;;;;;;6.63;2.60;;;;;;;;;;5004862;28;20971;-83
2022/04/10 00:36:59;;;;;;;9.00;2.60;;;;;;;;;;5003244;28;20091;-78
2022/04/10 00:39:24;;;;;;;7.20;2.53;;;;;;;;;;5011451;28;20061;-81
2022/04/10 00:41:50;;;;;;;4.88;2.38;;;;;;;;;;5005176;28;20128;-79
2022/04/10 00:44:16;;;;;;;6.15;2.80;;;;;;;;;;5000150;28;20137;-79
2022/04/10 00:46:41;;;;;;;5.45;2.40;;;;;;;;;;5002754;28;20851;-86
2022/04/10 00:49:07;;;;;;;5.05;2.15;;;;;;;;;;5005658;28;20033;-80
2022/04/10 00:51:40;;;;;;;6.97;2.20;;;;;;;;;;5003599;28;20025;-87
2022/04/10 00:54:07;;;;;;;5.25;2.50;;;;;;;;;;5003783;28;20040;-83
2022/04/10 00:56:34;;;;;;;5.47;2.13;;;;;;;;;;5003122;28;20128;-84
2022/04/10 00:59:01;;;;;;;4.10;1.90;;;;;;;;;;5006436;28;20044;-86
2022/04/10 01:01:27;;;;;;;5.18;2.22;;;;;;;;;;5002203;28;20034;-81
2022/04/10 01:03:53;;;;;;;4.03;2.17;;;;;;;;;;5005273;28;20745;-83
2022/04/10 01:06:18;;;;;;;4.30;2.03;;;;;;;;;;5003888;28;20037;-83
2022/04/10 01:08:44;;;;;;;3.92;2.00;;;;;;;;;;5007100;28;20409;-80
2022/04/10 01:11:09;;;;;;;4.30;2.05;;;;;;;;;;5003180;28;20038;-87
2022/04/10 01:13:35;;;;;;;4.13;1.92;;;;;;;;;;5003240;28;20026;-83
2022/04/10 01:16:00;;;;;;;4.63;1.92;;;;;;;;;;5001371;28;20447;-84
2022/04/10 01:18:26;;;;;;;5.15;1.95;;;;;;;;;;5005535;28;20033;-86
2022/04/10 01:20:51;;;;;;;5.35;2.20;;;;;;;;;;5003301;28;20021;-80
2022/04/10 01:23:18;;;;;;;6.90;2.03;;;;;;;;;;5004452;28;20415;-87
2022/04/10 01:25:44;;;;;;;6.10;2.20;;;;;;;;;;5003827;28;20497;-83
2022/04/10 01:28:13;;;;;;;4.60;2.03;;;;;;;;;;5009482;28;20025;-81
2022/04/10 01:30:39;;;;;;;3.92;1.92;;;;;;;;;;5005688;28;20037;-80
2022/04/10 01:33:05;;;;;;;6.22;1.88;;;;;;;;;;5007749;28;20014;-84
2022/04/10 01:35:32;;;;;;;4.43;2.03;;;;;;;;;;5006259;28;20086;-79
2022/04/10 01:38:00;;;;;;;3.78;2.10;;;;;;;;;;5010747;28;20030;-83
2022/04/10 01:40:25;;;;;;;6.20;2.53;;;;;;;;;;5008336;28;20040;-80
2022/04/10 01:42:51;;;;;;;4.60;2.00;;;;;;;;;;5009264;28;20058;-80
2022/04/10 01:45:16;;;;;;;4.65;1.77;;;;;;;;;;5009432;28;20033;-84
2022/04/10 01:47:42;;;;;;;4.75;1.80;;;;;;;;;;5010346;28;20030;-87
2022/04/10 01:50:07;;;;;;;4.18;1.88;;;;;;;;;;5007976;28;20038;-79
2022/04/10 01:52:33;;;;;;;4.63;2.05;;;;;;;;;;5011839;28;20045;-80
2022/04/10 01:54:58;;;;;;;3.88;2.10;;;;;;;;;;5010292;28;20173;-83
2022/04/10 01:57:24;;;;;;;5.18;2.30;;;;;;;;;;5011236;28;20442;-79
2022/04/10 01:59:49;;;;;;;4.75;1.95;;;;;;;;;;5010958;28;20034;-79
2022/04/10 02:02:14;;;;;;;6.50;2.40;;;;;;;;;;5008915;28;20026;-81
2022/04/10 02:04:40;;;;;;;5.15;1.98;;;;;;;;;;5010902;28;20393;-84
2022/04/10 02:07:05;;;;;;;3.97;2.10;;;;;;;;;;5010890;28;20026;-80
2022/04/10 02:09:30;;;;;;;4.20;1.90;;;;;;;;;;5011352;28;20024;-81
2022/04/10 02:11:56;;;;;;;4.43;1.88;;;;;;;;;;5009287;28;20053;-80
2022/04/10 02:14:21;;;;;;;5.25;2.20;;;;;;;;;;5007661;28;20073;-87
2022/04/10 02:16:46;;;;;;;4.43;2.05;;;;;;;;;;5009559;28;20030;-81
2022/04/10 02:19:11;;;;;;;4.22;1.95;;;;;;;;;;5008859;28;20034;-78
2022/04/10 02:21:37;;;;;;;4.70;1.90;;;;;;;;;;5012715;28;20026;-86
2022/04/10 02:24:03;;;;;;;5.68;2.00;;;;;;;;;;5010621;28;20029;-79
2022/04/10 02:26:28;;;;;;;5.68;2.00;;;;;;;;;;5008581;28;20030;-84
2022/04/10 02:28:54;;;;;;;3.53;1.80;;;;;;;;;;5010481;28;20091;-86
2022/04/10 02:31:19;;;;;;;3.78;1.90;;;;;;;;;;5008965;28;20034;-84
2022/04/10 02:33:44;;;;;;;3.33;1.73;;;;;;;;;;5009645;28;20026;-88
2022/04/10 02:36:11;;;;;;;3.53;1.95;;;;;;;;;;5007942;28;20396;-82
2022/04/10 02:38:36;;;;;;;6.20;2.20;;;;;;;;;;5009913;28;20033;-79
2022/04/10 02:41:02;;;;;;;4.75;1.98;;;;;;;;;;5009679;28;20038;-87
2022/04/10 02:43:27;;;;;;;5.68;2.00;;;;;;;;;;5007868;28;20050;-84
2022/04/10 02:45:52;;;;;;;3.85;1.83;;;;;;;;;;5005552;28;20045;-86
2022/04/10 02:48:18;;;;;;;5.47;1.80;;;;;;;;;;5026035;28;20076;-79
2022/04/10 02:50:43;;;;;;;4.90;2.03;;;;;;;;;;5008877;28;20463;-84
2022/04/10 02:53:08;;;;;;;4.28;1.65;;;;;;;;;;5007903;28;20052;-79
2022/04/10 02:55:34;;;;;;;3.95;1.90;;;;;;;;;;5011007;28;20056;-82
2022/04/10 02:57:59;;;;;;;3.60;1.52;;;;;;;;;;5007350;28;20040;-79
2022/04/10 03:00:25;;;;;;;3.30;1.75;;;;;;;;;;5007597;28;20026;-82
2022/04/10 03:02:51;;;;;;;5.07;2.00;;;;;;;;;;5006242;28;20026;-86
2022/04/10 03:05:16;;;;;;;2.95;1.65;;;;;;;;;;5004491;28;20402;-80
2022/04/10 03:07:41;;;;;;;3.50;1.88;;;;;;;;;;5004099;28;20390;-79
2022/04/10 03:10:07;;;;;;;3.15;1.75;;;;;;;;;;5006735;28;20490;-84
2022/04/10 03:12:32;;;;;;;4.35;1.77;;;;;;;;;;5005663;28;20022;-86
2022/04/10 03:14:58;;;;;;;3.65;1.65;;;;;;;;;;5002838;28;20448;-84
2022/04/10 03:17:23;;;;;;;6.00;1.80;;;;;;;;;;5004739;28;20056;-80
2022/04/10 03:19:49;;;;;;;4.40;1.85;;;;;;;;;;5004422;28;20040;-78
2022/04/10 03:22:14;;;;;;;3.22;1.60;;;;;;;;;;5003111;28;20432;-77
2022/04/10 03:24:40;;;;;;;4.10;2.03;;;;;;;;;;5003558;28;20533;-84
2022/04/10 03:27:05;;;;;;;3.80;1.83;;;;;;;;;;5004708;28;20026;-84
2022/04/10 03:29:31;;;;;;;3.38;1.90;;;;;;;;;;4999462;28;20083;-82
2022/04/10 03:31:56;;;;;;;3.75;1.90;;;;;;;;;;5003552;28;20032;-82
2022/04/10 03:34:21;;;;;;;3.60;2.10;;;;;;;;;;4998690;28;20474;-84
2022/04/10 03:36:47;;;;;;;5.72;2.10;;;;;;;;;;5007225;28;20034;-84
2022/04/10 03:39:12;;;;;;;3.13;1.90;;;;;;;;;;5003477;28;20029;-78
2022/04/10 03:41:37;;;;;;;4.93;2.20;;;;;;;;;;5008243;28;20040;-78
2022/04/10 03:44:03;;;;;;;5.43;2.30;;;;;;;;;;5005216;28;20183;-86
2022/04/10 03:46:28;;;;;;;4.68;2.13;;;;;;;;;;5001686;28;20481;-78
2022/04/10 03:48:54;;;;;;;3.75;2.03;;;;;;;;;;5002981;28;20033;-78
2022/04/10 03:51:19;;;;;;;4.55;1.90;;;;;;;;;;5004689;28;20026;-87
2022/04/10 03:53:45;;;;;;;3.28;1.70;;;;;;;;;;5005613;28;20178;-78
2022/04/10 03:56:10;;;;;;;3.47;1.85;;;;;;;;;;5006226;28;20065;-79
2022/04/10 03:58:35;;;;;;;5.00;1.90;;;;;;;;;;5005845;28;20079;-79
2022/04/10 04:01:00;;;;;;;4.88;2.13;;;;;;;;;;5009549;28;20032;-79
2022/04/10 04:03:26;;;;;;;3.88;2.00;;;;;;;;;;5005599;28;21875;-80
2022/04/10 04:05:51;;;;;;;4.80;1.80;;;;;;;;;;5008235;28;20496;-87
2022/04/10 04:08:16;;;;;;;4.80;1.90;;;;;;;;;;5005095;28;20030;-83
2022/04/10 04:10:42;;;;;;;5.03;2.10;;;;;;;;;;5010459;28;20481;-85
2022/04/10 04:13:08;;;;;;;3.70;1.98;;;;;;;;;;5004855;28;20032;-81
2022/04/10 04:15:33;;;;;;;5.18;2.00;;;;;;;;;;5001559;28;20268;-84
2022/04/10 04:17:59;;;;;;;4.35;1.83;;;;;;;;;;5003884;28;20037;-82
2022/04/10 04:20:24;;;;;;;5.32;2.05;;;;;;;;;;5002722;28;20025;-82
2022/04/10 04:22:49;;;;;;;3.33;1.85;;;;;;;;;;5015866;28;20058;-84
2022/04/10 04:25:15;;;;;;;5.22;2.33;;;;;;;;;;5003367;28;20057;-79
2022/04/10 04:27:40;;;;;;;3.25;1.65;;;;;;;;;;5003190;28;20054;-86
2022/04/10 04:30:06;;;;;;;4.72;2.20;;;;;;;;;;5003132;28;20030;-80
2022/04/10 04:32:31;;;;;;;4.57;2.00;;;;;;;;;;5001869;28;20498;-87
2022/04/10 04:34:57;;;;;;;4.30;2.10;;;;;;;;;;5001625;28;20049;-87
2022/04/10 04:37:22;;;;;;;4.38;2.08;;;;;;;;;;4999460;28;20026;-84
2022/04/10 04:39:47;;;;;;;4.78;2.05;;;;;;;;;;5000724;28;20473;-84
2022/04/10 04:42:13;;;;;;;3.47;1.70;;;;;;;;;;5003099;28;20037;-79
2022/04/10 04:44:38;;;;;;;3.45;1.90;;;;;;;;;;5002027;28;20022;-86
2022/04/10 04:47:04;;;;;;;4.72;2.30;;;;;;;;;;5021268;28;20088;-80
2022/04/10 04:49:29;;;;;;;6.55;2.05;;;;;;;;;;5017205;28;20030;-85
2022/04/10 04:51:54;;;;;;;5.18;2.33;;;;;;;;;;5004390;28;20100;-85
2022/04/10 04:54:20;;;;;;;4.60;1.88;;;;;;;;;;5007115;28;20026;-85
2022/04/10 04:56:45;;;;;;;6.55;1.95;;;;;;;;;;5001141;28;20096;-80
2022/04/10 04:59:14;;;;;;;3.90;2.05;;;;;;;;;;5001762;28;20065;-80
2022/04/10 05:01:42;;;;;;;4.57;2.20;;;;;;;;;;5006486;28;20405;-86
2022/04/10 05:04:11;;;;;;;3.95;2.10;;;;;;;;;;5003789;28;22149;-79
2022/04/10 05:06:37;;;;;;;6.05;2.20;;;;;;;;;;5006062;28;20123;-79
2022/04/10 05:09:04;;;;;;;4.45;2.15;;;;;;;;;;5004861;28;20065;-80
2022/04/10 05:11:29;;;;;;;5.70;2.08;;;;;;;;;;5014266;28;20108;-82
2022/04/10 05:13:54;;;;;;;4.40;2.15;;;;;;;;;;5002379;28;20140;-84
2022/04/10 05:16:21;;;;;;;4.57;1.83;;;;;;;;;;5002444;28;20033;-83
2022/04/10 05:18:47;;;;;;;3.53;1.88;;;;;;;;;;5004280;28;20037;-85
2022/04/10 05:21:13;;;;;;;4.13;2.20;;;;;;;;;;5005801;28;20026;-84
2022/04/10 05:23:38;;;;;;;3.92;2.20;;;;;;;;;;5002450;28;20068;-79
2022/04/10 05:26:03;;;;;;;4.68;2.03;;;;;;;;;;5016781;28;20116;-84
2022/04/10 05:28:30;;;;;;;5.22;2.28;;;;;;;;;;5002441;28;20084;-79
2022/04/10 05:30:55;;;;;;;4.60;2.00;;;;;;;;;;5001821;28;20038;-85
2022/04/10 05:33:21;;;;;;;5.28;2.10;;;;;;;;;;5002613;28;20386;-80
2022/04/10 05:35:47;;;;;;;4.40;2.08;;;;;;;;;;5003139;28;20500;-81
2022/04/10 05:38:12;;;;;;;7.78;1.95;;;;;;;;;;5002097;28;20139;-84
2022/04/10 05:40:38;;;;;;;4.75;1.90;;;;;;;;;;5018707;28;20057;-80
2022/04/10 05:43:03;;;;;;;3.75;2.10;;;;;;;;;;5001277;28;20191;-86
2022/04/10 05:45:28;;;;;;;3.70;1.95;;;;;;;;;;5003027;28;20033;-87
2022/04/10 05:47:54;;;;;;;4.57;2.30;;;;;;;;;;5005064;28;20074;-84
2022/04/10 05:50:19;;;;;;;5.40;2.10;;;;;;;;;;4998167;28;20030;-86
2022/04/10 05:52:46;;;;;;;7.72;2.45;;;;;;;;;;5003752;28;22748;-86
2022/04/10 05:55:19;;;;;;;4.63;2.13;;;;;;;;;;5005041;28;20034;-80
2022/04/10 05:57:45;;;;;;;;;;;;;;;;;;5001342;28;20167;-85
2022/04/10 06:00:13;;;;;;;4.15;1.65;;;;;;;;;;5003636;28;19996;-80
2022/04/10 06:02:39;;;;;;;5.28;1.77;;;;;;;;;;5005736;28;20483;-86
2022/04/10 06:05:06;;;;;;;5.32;1.92;;;;;;;;;;5007114;28;20026;-80
2022/04/10 06:07:31;;;;;;;5.78;1.88;;;;;;;;;;5001315;28;20026;-79
2022/04/10 06:09:58;;;;;;;3.95;1.98;;;;;;;;;;5009212;28;20355;-86
2022/04/10 06:12:24;;;;;;;4.30;1.95;;;;;;;;;;5009070;28;20029;-80
2022/04/10 06:14:49;;;;;;;4.45;2.08;;;;;;;;;;5006700;28;20520;-83
2022/04/10 06:17:14;;;;;;;4.60;1.95;;;;;;;;;;5009839;28;20026;-84
2022/04/10 06:19:39;;;;;;;3.50;1.90;;;;;;;;;;5009555;28;20175;-86
2022/04/10 06:22:07;;;;;;;3.80;2.00;;;;;;;;;;5008871;28;20120;-79
2022/04/10 06:24:32;;;;;;;4.15;2.08;;;;;;;;;;5001255;28;20104;-81
2022/04/10 06:26:57;;;;;;;3.28;1.80;;;;;;;;;;5004671;28;20522;-81
2022/04/10 06:29:23;;;;;;;6.22;2.40;;;;;;;;;;5007544;28;20044;-84
2022/04/10 06:31:49;;;;;;;3.78;2.05;;;;;;;;;;5005958;28;20132;-85
2022/04/10 06:34:15;;;;;;;4.88;2.25;;;;;;;;;;5004516;28;20478;-81
2022/04/10 06:36:41;;;;;;;3.90;2.17;;;;;;;;;;5006168;28;20025;-86
2022/04/10 06:39:06;;;;;;;5.65;2.20;;;;;;;;;;5007522;28;20033;-80
2022/04/10 06:41:32;;;;;;;3.85;1.98;;;;;;;;;;5007918;28;20018;-82
2022/04/10 06:43:57;;;;;;;3.70;1.85;;;;;;;;;;5007425;28;20050;-81
2022/04/10 06:46:23;;;;;;;7.15;2.30;;;;;;;;;;5010787;28;20087;-85
2022/04/10 06:48:49;;;;;;;5.90;2.33;;;;;;;;;;5010501;28;20026;-80
2022/04/10 06:51:16;;;;;;;6.50;1.90;;;;;;;;;;5009987;28;20123;-85
2022/04/10 06:53:42;;;;;;;6.97;2.17;;;;;;;;;;5007965;28;20022;-85
2022/04/10 06:56:07;;;;;;;4.25;2.65;;;;;;;;;;5007834;28;20083;-80
2022/04/10 06:58:33;;;;;;;5.65;2.15;;;;;;;;;;5009194;28;20111;-87
2022/04/10 07:00:59;;;;;;;3.55;1.85;;;;;;;;;;5012869;28;20398;-85
2022/04/10 07:03:24;;;;;;;3.53;1.88;;;;;;;;;;5010168;28;20026;-79
2022/04/10 07:05:49;;;;;;;6.97;2.15;;;;;;;;;;5005789;28;20036;-85
2022/04/10 07:08:15;;;;;;;4.85;2.33;;;;;;;;;;5007993;28;20038;-87
2022/04/10 07:10:41;;;;;;;2.72;1.70;;;;;;;;;;5011897;28;20025;-87
2022/04/10 07:13:06;;;;;;;3.80;1.50;;;;;;;;;;5012855;28;20026;-81
2022/04/10 07:15:32;;;;;;;2.97;1.30;;;;;;;;;;5010787;28;20397;-85
2022/04/10 07:17:58;;;;;;;4.45;1.80;;;;;;;;;;5002011;28;20084;-84
2022/04/10 07:20:25;;;;;;;4.40;1.55;;;;;;;;;;5002851;28;20024;-81
2022/04/10 07:25:34;;;;;;;3.33;1.75;;;;;;;;;;5005032;28;20512;-86
2022/04/10 07:28:00;;;;;;;3.13;1.70;;;;;;;;;;5005305;28;20034;-88
2022/04/10 07:30:29;;;;;;;2.20;1.17;;;;;;;;;;5003336;28;20033;-87
2022/04/10 07:32:56;;;;;;;4.45;1.55;;;;;;;;;;5006553;28;20026;-82
2022/04/10 07:35:28;;;;;;;2.80;1.20;;;;;;;;;;5004762;28;20022;-84
2022/04/10 07:37:53;;;;;;;4.03;1.13;;;;;;;;;;5005145;28;20046;-84
2022/04/10 07:40:22;;;;;;;2.78;1.23;;;;;;;;;;5003721;28;20056;-81
2022/04/10 07:42:48;;;;;;;3.38;1.38;;;;;;;;;;5003346;28;20417;-85
2022/04/10 07:47:59;;;;;;;2.80;1.15;;;;;;;;;;5008535;28;20035;-80
2022/04/10 07:50:24;;;;;;;3.55;1.27;;;;;;;;;;5005490;28;20061;-86
2022/04/10 07:52:51;;;;;;;4.10;1.35;;;;;;;;;;5003498;28;20054;-85
2022/04/10 07:55:16;;;;;;;3.75;1.10;;;;;;;;;;5008639;28;20025;-84
2022/04/10 07:57:41;;;;;;;4.15;1.30;;;;;;;;;;5005442;28;20033;-82
2022/04/10 08:00:08;;;;;;;1.98;0.98;;;;;;;;;;5003500;28;20069;-81
2022/04/10 08:02:33;;;;;;;3.70;0.90;;;;;;;;;;5006410;28;20021;-81
2022/04/10 08:04:58;;;;;;;2.53;1.02;;;;;;;;;;5004869;28;20099;-85
2022/04/10 08:07:24;;;;;;;3.88;1.17;;;;;;;;;;5003139;28;20026;-79
2022/04/10 08:09:49;;;;;;;2.90;1.02;;;;;;;;;;5005302;28;20025;-78
2022/04/10 08:12:15;;;;;;;2.90;1.05;;;;;;;;;;5005666;28;20088;-79
2022/04/10 08:14:41;;;;;;;3.58;1.08;;;;;;;;;;4988386;28;20033;-84
2022/04/10 08:17:09;;;;;;;1.63;0.93;;;;;;;;;;5003284;28;20038;-79
2022/04/10 08:19:35;;;;;;;3.50;1.15;;;;;;;;;;5000872;28;20042;-83
2022/04/10 08:22:00;;;;;;;3.30;1.00;;;;;;;;;;5004325;28;20397;-79
2022/04/10 08:24:26;;;;;;;2.13;1.10;;;;;;;;;;5004775;28;20054;-86
2022/04/10 08:26:51;;;;;;;3.78;0.95;;;;;;;;;;5001843;28;20057;-83
2022/04/10 08:29:16;;;;;;;3.58;1.33;;;;;;;;;;5005837;28;20030;-79
2022/04/10 08:31:44;;;;;;;3.72;1.30;;;;;;;;;;5003172;28;20026;-78
2022/04/10 08:34:09;;;;;;;3.17;1.35;;;;;;;;;;5005881;28;20104;-82
2022/04/10 08:36:35;;;;;;;3.03;1.30;;;;;;;;;;5005158;28;20148;-82
2022/04/10 08:39:02;;;;;;;2.67;1.25;;;;;;;;;;5005349;28;20034;-78
2022/04/10 08:41:31;;;;;;;3.63;1.40;;;;;;;;;;5002778;28;20025;-79
2022/04/10 08:44:00;;;;;;;3.25;1.50;;;;;;;;;;5001099;28;20116;-85
2022/04/10 08:46:26;;;;;;;3.50;1.10;;;;;;;;;;5005706;28;20065;-78
2022/04/10 08:48:53;;;;;;;5.38;1.27;;;;;;;;;;5001772;28;20081;-83
2022/04/10 08:51:19;;;;;;;3.97;1.15;;;;;;;;;;5004964;28;20444;-82
2022/04/10 08:53:46;;;;;;;2.60;1.00;;;;;;;;;;5001453;28;20025;-83
2022/04/10 08:56:12;;;;;;;3.75;1.08;;;;;;;;;;5002238;28;20442;-83
2022/04/10 08:58:37;;;;;;;3.10;0.93;;;;;;;;;;5003374;28;20062;-83
2022/04/10 09:01:03;;;;;;;2.67;0.88;;;;;;;;;;5002987;28;20453;-80
2022/04/10 09:03:28;;;;;;;2.20;1.10;;;;;;;;;;5003366;28;20092;-81
2022/04/10 09:06:10;;;;;;;4.55;1.23;;;;;;;;;;4999222;28;20026;-83
2022/04/10 09:08:35;;;;;;;1.67;0.82;;;;;;;;;;5000166;28;20720;-82
2022/04/10 09:11:08;;;;;;;3.15;1.25;;;;;;;;;;4996532;28;20026;-81
2022/04/10 09:13:46;;;;;;;4.10;1.20;;;;;;;;;;5001852;28;20029;-78
2022/04/10 09:16:12;;;;;;;5.80;1.65;;;;;;;;;;5011057;28;20030;-80
2022/04/10 09:18:57;;;;;;;2.53;1.02;;;;;;;;;;5005265;28;20040;-82
2022/04/10 09:21:32;;;;;;;2.22;1.05;;;;;;;;;;5001162;28;20083;-81
2022/04/10 09:24:08;;;;;;;2.92;1.30;;;;;;;;;;5001378;28;20076;-81
2022/04/10 09:26:55;;;;;;;4.15;1.27;;;;;;;;;;5011932;28;20030;-83
2022/04/10 09:29:22;;;;;;;5.70;1.10;;;;;;;;;;4999086;28;20409;-84
2022/04/10 09:31:48;;;;;;;4.70;1.27;;;;;;;;;;5002857;28;20037;-81
2022/04/10 09:34:16;;;;;;;4.55;1.23;;;;;;;;;;5005384;28;20160;-82
2022/04/10 09:36:43;;;;;;;2.72;0.90;;;;;;;;;;5000439;28;20030;-82
2022/04/10 09:39:29;;;;;;;3.10;1.13;;;;;;;;;;4996176;28;20104;-79
2022/04/10 09:42:02;;;;;;;2.00;1.10;;;;;;;;;;4994430;28;20026;-81
2022/04/10 09:44:31;;;;;;;2.75;1.00;;;;;;;;;;5004801;28;20042;-82
2022/04/10 09:47:00;;;;;;;3.22;1.23;;;;;;;;;;5004074;28;20040;-79
2022/04/10 09:49:31;;;;;;;6.13;1.73;;;;;;;;;;5003353;28;20052;-79
2022/04/10 09:52:11;;;;;;;2.47;1.33;;;;;;;;;;5018615;28;20064;-79
2022/04/10 09:54:43;;;;;;;3.47;1.05;;;;;;;;;;5000653;28;20021;-82
2022/04/10 09:57:16;;;;;;;2.72;1.10;;;;;;;;;;5001414;28;20710;-79
2022/04/10 09:59:45;;;;;;;;;;;;;;;;;;5004526;28;20030;-82
2022/04/10 10:02:12;;;;;;;1.95;1.00;;;;;;;;;;5001640;28;19963;-82
2022/04/10 10:04:39;;;;;;;4.40;1.20;;;;;;;;;;5002037;28;20688;-78
2022/04/10 10:07:09;;;;;;;3.85;1.10;;;;;;;;;;5003549;28;20141;-83
2022/04/10 10:09:35;;;;;;;4.32;1.00;;;;;;;;;;5003382;28;20026;-80
2022/04/10 10:12:02;;;;;;;2.35;1.02;;;;;;;;;;5004114;28;20030;-79
2022/04/10 10:14:30;;;;;;;6.72;1.08;;;;;;;;;;5003754;28;20132;-83
2022/04/10 10:16:57;;;;;;;2.50;1.10;;;;;;;;;;5003076;28;20045;-80
2022/04/10 10:19:23;;;;;;;5.22;1.30;;;;;;;;;;5006972;28;20060;-80
2022/04/10 10:21:49;;;;;;;2.15;0.90;;;;;;;;;;5004277;28;20029;-82
2022/04/10 10:24:18;;;;;;;2.50;0.95;;;;;;;;;;5004216;28;20069;-83
2022/04/10 10:26:59;;;;;;;3.75;1.10;;;;;;;;;;5001955;28;20674;-82
2022/04/10 10:29:27;;;;;;;2.40;1.10;;;;;;;;;;5004814;28;20104;-83
2022/04/10 10:32:02;;;;;;;1.83;0.95;;;;;;;;;;4998793;28;20037;-84
2022/04/10 10:34:29;;;;;;;2.65;1.00;;;;;;;;;;5017245;28;20022;-83
2022/04/10 10:36:57;;;;;;;3.85;1.00;;;;;;;;;;5003525;28;20041;-82
2022/04/10 10:39:23;;;;;;;2.95;1.08;;;;;;;;;;5001290;28;20061;-83
2022/04/10 10:41:52;;;;;;;2.03;0.90;;;;;;;;;;5004848;28;20367;-81
2022/04/10 10:44:23;;;;;;;2.85;0.90;;;;;;;;;;5006492;28;20128;-83
2022/04/10 10:47:03;;;;;;;2.72;0.90;;;;;;;;;;5016086;28;20033;-85
2022/04/10 10:49:34;;;;;;;2.83;1.05;;;;;;;;;;5005947;28;20037;-80
2022/04/10 10:52:10;;;;;;;2.92;0.90;;;;;;;;;;5003729;28;20029;-82
2022/04/10 10:54:44;;;;;;;1.75;1.08;;;;;;;;;;5019208;28;20033;-81
2022/04/10 10:57:23;;;;;;;2.10;1.00;;;;;;;;;;5004239;28;20045;-81
2022/04/10 11:00:04;;;;;;;1.48;0.88;;;;;;;;;;5007189;28;20030;-82
2022/04/10 11:02:32;;;;;;;3.35;1.20;;;;;;;;;;5004833;28;20049;-83
2022/04/10 11:04:59;;;;;;;3.30;0.93;;;;;;;;;;5007529;28;20038;-84
2022/04/10 11:07:28;;;;;;;2.40;0.88;;;;;;;;;;4999640;28;20056;-81
2022/04/10 11:10:01;;;;;;;1.83;0.85;;;;;;;;;;5000443;28;20037;-80
2022/04/10 11:12:31;;;;;;;3.20;1.10;;;;;;;;;;5004341;28;20119;-83
2022/04/10 11:14:59;;;;;;;2.67;1.08;;;;;;;;;;5005818;28;20041;-81
2022/04/10 11:17:30;;;;;;;3.47;1.00;;;;;;;;;;5004717;28;20052;-80
2022/04/10 11:20:02;;;;;;;5.55;1.10;;;;;;;;;;5005660;28;20045;-83
2022/04/10 11:22:47;;;;;;;2.40;0.93;;;;;;;;;;5003796;28;20036;-81
2022/04/10 11:25:13;;;;;;;3.25;0.90;;;;;;;;;;5006013;28;20196;-79
2022/04/10 11:27:49;;;;;;;1.60;0.90;;;;;;;;;;5006440;28;20026;-81
2022/04/10 11:30:37;;;;;;;2.88;0.90;;;;;;;;;;5003686;28;20061;-82
2022/04/10 11:33:06;;;;;;;2.30;0.80;;;;;;;;;;5012123;28;20036;-83
2022/04/10 11:35:35;;;;;;;3.15;0.90;;;;;;;;;;5003671;28;20033;-82
2022/04/10 11:38:05;;;;;;;1.77;0.80;;;;;;;;;;5002466;28;20034;-83
2022/04/10 11:40:34;;;;;;;3.42;0.85;;;;;;;;;;4998455;28;20108;-84
2022/04/10 11:43:04;;;;;;;2.65;0.90;;;;;;;;;;5004520;28;20057;-82
2022/04/10 11:45:32;;;;;;;6.38;1.20;;;;;;;;;;5001631;28;20057;-80
2022/04/10 11:47:58;;;;;;;3.58;0.98;;;;;;;;;;5004264;28;20025;-82
2022/04/10 11:50:27;;;;;;;4.82;0.98;;;;;;;;;;5007498;28;20120;-82
2022/04/10 11:53:07;;;;;;;4.05;1.00;;;;;;;;;;4991054;28;20224;-80
2022/04/10 11:55:43;;;;;;;2.60;1.10;;;;;;;;;;5006870;28;20057;-82
2022/04/10 11:58:17;;;;;;;1.70;0.93;;;;;;;;;;5019650;28;20033;-83
2022/04/10 12:00:53;;;;;;;5.10;1.10;;;;;;;;;;5007623;28;20069;-82
2022/04/10 12:03:20;;;;;;;3.80;1.33;;;;;;;;;;5005065;28;20088;-82
2022/04/10 12:05:46;;;;;;;2.15;0.90;;;;;;;;;;5004962;28;20117;-82
2022/04/10 12:08:12;;;;;;;3.25;1.00;;;;;;;;;;5004422;28;20112;-83
2022/04/10 12:10:50;;;;;;;3.67;1.15;;;;;;;;;;5000759;28;20038;-78
2022/04/10 12:13:16;;;;;;;1.98;0.75;;;;;;;;;;5006029;28;20076;-79
2022/04/10 12:15:41;;;;;;;2.65;1.10;;;;;;;;;;4994004;28;20038;-82
2022/04/10 12:18:11;;;;;;;3.10;1.00;;;;;;;;;;4997085;28;20030;-82
2022/04/10 12:20:44;;;;;;;3.20;0.93;;;;;;;;;;4998931;28;20132;-81
2022/04/10 12:23:24;;;;;;;2.78;1.30;;;;;;;;;;5003229;28;20113;-82
2022/04/10 12:25:56;;;;;;;2.05;0.75;;;;;;;;;;4999448;28;20034;-79
2022/04/10 12:28:22;;;;;;;2.83;1.00;;;;;;;;;;4999793;28;20022;-82
2022/04/10 12:30:48;;;;;;;1.17;0.60;;;;;;;;;;5001342;28;20041;-83
2022/04/10 12:33:14;;;;;;;2.20;0.60;;;;;;;;;;5000877;28;20038;-81
2022/04/10 12:35:41;;;;;;;1.60;0.70;;;;;;;;;;5000769;28;20038;-82
2022/04/10 12:38:07;;;;;;;4.30;0.70;;;;;;;;;;5014580;28;20029;-83
2022/04/10 12:40:37;;;;;;;2.13;0.60;;;;;;;;;;5000244;28;20029;-80
2022/04/10 12:43:04;;;;;;;2.67;0.80;;;;;;;;;;4997688;28;20062;-79
2022/04/10 12:45:39;;;;;;;1.80;0.70;;;;;;;;;;4997803;28;20140;-79
2022/04/10 12:48:24;;;;;;;2.13;0.90;;;;;;;;;;4998732;28;20073;-79
2022/04/10 12:51:07;;;;;;;1.52;0.68;;;;;;;;;;4995704;28;20028;-83
2022/04/10 12:53:33;;;;;;;1.80;0.85;;;;;;;;;;4999624;28;20124;-79
2022/04/10 12:55:59;;;;;;;2.47;0.68;;;;;;;;;;4999214;28;20871;-83
2022/04/10 12:58:29;;;;;;;2.00;1.05;;;;;;;;;;4999965;28;20117;-81
2022/04/10 13:00:54;;;;;;;2.92;1.02;;;;;;;;;;5014202;28;20582;-80
2022/04/10 13:03:23;;;;;;;3.10;1.02;;;;;;;;;;4997789;28;20092;-81
2022/04/10 13:06:06;;;;;;;3.97;0.90;;;;;;;;;;5000225;28;20132;-80
2022/04/10 13:08:37;;;;;;;1.23;0.70;;;;;;;;;;5000377;28;20219;-78
2022/04/10 13:11:05;;;;;;;3.20;0.90;;;;;;;;;;5016041;28;20471;-83
2022/04/10 13:13:54;;;;;;;2.83;0.82;;;;;;;;;;4996427;28;20569;-81
2022/04/10 13:16:32;;;;;;;2.72;0.80;;;;;;;;;;4995970;28;20488;-83
2022/04/10 13:19:04;;;;;;;4.20;1.10;;;;;;;;;;5000099;28;20124;-83
2022/04/10 13:21:30;;;;;;;3.22;0.90;;;;;;;;;;5012459;28;20549;-82
2022/04/10 13:23:56;;;;;;;3.05;1.35;;;;;;;;;;4995719;28;20041;-83
2022/04/10 13:26:30;;;;;;;2.00;0.88;;;;;;;;;;5000291;28;20120;-84
2022/04/10 13:28:56;;;;;;;2.80;0.90;;;;;;;;;;4998993;28;20069;-81
2022/04/10 13:31:22;;;;;;;4.25;0.90;;;;;;;;;;4997847;28;20545;-79
2022/04/10 13:33:48;;;;;;;2.85;0.90;;;;;;;;;;4995949;28;20176;-83
2022/04/10 13:36:13;;;;;;;2.72;1.00;;;;;;;;;;4998502;28;20466;-83
2022/04/10 13:38:39;;;;;;;1.98;0.80;;;;;;;;;;4998538;28;20135;-82
2022/04/10 13:41:05;;;;;;;1.45;0.88;;;;;;;;;;4999645;28;20034;-81
2022/04/10 13:43:31;;;;;;;1.88;0.98;;;;;;;;;;4996984;28;20060;-84
2022/04/10 13:45:57;;;;;;;3.58;1.17;;;;;;;;;;4999030;28;20045;-81
2022/04/10 13:48:30;;;;;;;2.75;1.10;;;;;;;;;;4994338;28;20034;-85
2022/04/10 13:50:58;;;;;;;1.80;0.80;;;;;;;;;;5007491;28;20034;-81
2022/04/10 13:53:24;;;;;;;2.88;0.88;;;;;;;;;;4998782;28;20065;-83
2022/04/10 13:55:49;;;;;;;2.28;1.10;;;;;;;;;;4997048;28;20125;-80
2022/04/10 13:58:15;;;;;;;2.65;0.70;;;;;;;;;;4996802;28;20080;-82
2022/04/10 14:00:41;;;;;;;1.67;0.90;;;;;;;;;;4998317;28;20755;-82
2022/04/10 14:03:07;;;;;;;3.95;1.00;;;;;;;;;;5005193;28;20029;-82
2022/04/10 14:05:33;;;;;;;3.13;1.00;;;;;;;;;;4996103;28;20749;-81
2022/04/10 14:08:01;;;;;;;2.45;1.00;;;;;;;;;;4999290;28;20033;-83
2022/04/10 14:10:27;;;;;;;3.88;1.35;;;;;;;;;;4999770;28;20033;-82
2022/04/10 14:12:52;;;;;;;2.63;0.80;;;;;;;;;;5001862;28;20049;-81
2022/04/10 14:15:18;;;;;;;2.83;1.02;;;;;;;;;;5000617;28;20041;-81
2022/04/10 14:17:43;;;;;;;2.83;1.02;;;;;;;;;;4999132;28;20034;-82
2022/04/10 14:20:09;;;;;;;1.40;0.52;;;;;;;;;;4996790;28;20033;-84
2022/04/10 14:22:34;;;;;;;2.72;0.90;;;;;;;;;;4999748;28;20112;-85
2022/04/10 14:25:01;;;;;;;2.55;1.00;;;;;;;;;;4996544;28;20038;-82
2022/04/10 14:27:26;;;;;;;3.22;0.88;;;;;;;;;;4999883;28;20492;-79
2022/04/10 14:29:52;;;;;;;1.88;0.80;;;;;;;;;;5002937;28;20033;-81
2022/04/10 14:32:18;;;;;;;2.65;0.90;;;;;;;;;;5003458;28;20371;-83
2022/04/10 14:34:43;;;;;;;1.75;0.75;;;;;;;;;;5003428;28;20356;-84
2022/04/10 14:37:09;;;;;;;2.38;0.90;;;;;;;;;;5000555;28;20065;-82
2022/04/10 14:39:37;;;;;;;2.40;0.80;;;;;;;;;;5002318;28;20033;-80
2022/04/10 14:42:03;;;;;;;2.10;0.80;;;;;;;;;;5007400;28;20029;-84
2022/04/10 14:44:29;;;;;;;2.95;1.00;;;;;;;;;;5003222;28;20579;-85
2022/04/10 14:46:54;;;;;;;3.53;1.00;;;;;;;;;;5005752;28;20152;-85
2022/04/10 14:49:19;;;;;;;1.73;0.77;;;;;;;;;;5008102;28;20037;-83